createdAt,value
2023-04-24T00:01:22.629Z,30.60
2023-04-24T00:06:23.990Z,38.40
2023-04-24T00:11:25.268Z,37.70
2023-04-24T00:16:26.336Z,29.40
2023-04-24T00:21:27.460Z,36.00
2023-04-24T00:26:28.718Z,35.40
2023-04-24T00:31:29.769Z,34.60
2023-04-24T00:36:31.473Z,29.90
2023-04-24T00:41:32.862Z,26.30
2023-04-24T00:46:33.991Z,22.70
2023-04-24T00:51:35.059Z,25.60
2023-04-24T00:56:36.407Z,25.90
2023-04-24T01:01:42.336Z,26.90
2023-04-24T01:06:45.946Z,30.40
2023-04-24T01:11:47.351Z,29.30
2023-04-24T01:16:48.340Z,29.80
2023-04-24T01:21:51.765Z,26.70
2023-04-24T01:26:52.884Z,24.40
2023-04-24T01:31:55.550Z,23.40
2023-04-24T01:36:56.915Z,18.30
2023-04-24T01:41:58.049Z,24.00
2023-04-24T01:47:01.224Z,19.00
2023-04-24T01:52:02.555Z,20.90
2023-04-24T01:57:05.944Z,18.40
2023-04-24T02:02:07.814Z,18.00
2023-04-24T02:07:10.628Z,23.40
2023-04-24T02:12:11.717Z,20.50
2023-04-24T02:17:13.678Z,17.80
2023-04-24T02:22:14.824Z,16.10
2023-04-24T02:27:15.855Z,16.60
2023-04-24T02:32:17.095Z,17.10
2023-04-24T02:37:18.177Z,15.60
2023-04-24T02:42:19.155Z,20.70
2023-04-24T02:47:20.373Z,19.50
2023-04-24T02:52:24.439Z,19.50
2023-04-24T02:57:25.468Z,18.00
2023-04-24T03:02:26.732Z,15.10
2023-04-24T03:07:27.997Z,22.90
2023-04-24T03:12:29.040Z,28.60
2023-04-24T03:17:30.316Z,30.90
2023-04-24T03:22:32.958Z,23.10
2023-04-24T03:27:35.467Z,14.70
2023-04-24T03:32:41.175Z,14.30
2023-04-24T03:37:43.780Z,14.90
2023-04-24T03:43:07.598Z,15.60
2023-04-24T03:48:09.423Z,14.10
2023-04-24T03:53:11.918Z,13.10
2023-04-24T03:58:14.937Z,16.40
2023-04-24T04:03:16.793Z,19.60
2023-04-24T04:08:18.487Z,24.00
2023-04-24T04:13:19.640Z,17.80
2023-04-24T04:18:21.155Z,15.20
2023-04-24T04:23:23.186Z,21.40
2023-04-24T04:28:56.471Z,17.90
2023-04-24T04:33:58.812Z,20.50
2023-04-24T04:39:00.044Z,21.60
2023-04-24T04:44:16.611Z,23.50
2023-04-24T04:49:19.085Z,5.00
2023-04-24T04:59:21.559Z,19.20
2023-04-24T05:04:24.972Z,25.00
2023-04-24T05:09:27.646Z,21.50
2023-04-24T05:14:32.278Z,14.70
2023-04-24T05:19:36.274Z,19.10
2023-04-24T05:24:38.132Z,19.80
2023-04-24T05:30:02.200Z,18.50
2023-04-24T05:35:04.584Z,14.70
2023-04-24T05:40:06.345Z,11.50
2023-04-24T05:45:08.287Z,16.20
2023-04-24T05:50:11.102Z,16.50
2023-04-24T05:55:12.736Z,12.30
2023-04-24T06:00:14.530Z,9.20
2023-04-24T06:05:19.311Z,9.50
2023-04-24T06:10:20.687Z,10.40
2023-04-24T06:15:22.396Z,25.00
2023-04-24T06:25:44.879Z,9.30
2023-04-24T06:30:46.540Z,9.40
2023-04-24T06:35:48.122Z,7.30
2023-04-24T06:40:49.270Z,8.00
2023-04-24T06:45:50.393Z,7.20
2023-04-24T06:50:51.955Z,5.10
2023-04-24T06:55:52.988Z,4.40
2023-04-24T07:00:54.089Z,11.60
2023-04-24T07:05:55.602Z,9.50
2023-04-24T07:10:57.497Z,11.90
2023-04-24T07:15:58.579Z,9.30
2023-04-24T07:20:59.627Z,6.70
2023-04-24T07:26:00.720Z,6.50
2023-04-24T07:31:01.715Z,9.20
2023-04-24T07:36:02.943Z,8.70
2023-04-24T07:41:03.958Z,13.50
2023-04-24T07:46:07.104Z,6.80
2023-04-24T07:51:11.322Z,10.50
2023-04-24T07:56:12.395Z,5.60
2023-04-24T08:01:14.042Z,6.80
2023-04-24T08:06:15.562Z,9.80
2023-04-24T08:11:16.848Z,4.40
2023-04-24T08:16:18.145Z,7.70
2023-04-24T08:21:20.139Z,7.40
2023-04-24T08:26:21.241Z,7.30
2023-04-24T08:31:23.080Z,6.40
2023-04-24T08:36:26.503Z,6.90
2023-04-24T08:41:34.953Z,7.70
2023-04-24T08:46:37.372Z,6.00
2023-04-24T08:51:40.128Z,6.60
2023-04-24T08:56:44.417Z,7.30
2023-04-24T09:01:48.771Z,8.90
2023-04-24T09:06:51.120Z,9.70
2023-04-24T09:11:55.915Z,9.90
2023-04-24T09:16:57.370Z,4.90
2023-04-24T09:21:58.473Z,5.80
2023-04-24T09:27:01.758Z,5.80
2023-04-24T09:32:21.828Z,5.80
2023-04-24T09:37:30.188Z,5.60
2023-04-24T09:42:32.416Z,6.60
2023-04-24T09:47:40.663Z,8.40
2023-04-24T09:52:43.761Z,13.90
2023-04-24T09:57:49.705Z,7.40
2023-04-24T10:03:01.096Z,5.40
2023-04-24T10:08:05.454Z,5.00
2023-04-24T10:13:10.090Z,8.80
2023-04-24T10:18:12.012Z,6.90
2023-04-24T10:23:13.473Z,10.10
2023-04-24T10:28:15.374Z,5.60
2023-04-24T10:33:17.734Z,5.40
2023-04-24T10:38:28.034Z,5.20
2023-04-24T10:43:29.061Z,5.40
2023-04-24T10:48:31.027Z,6.40
2023-04-24T10:53:35.303Z,8.80
2023-04-24T10:58:48.403Z,5.40
2023-04-24T11:03:57.070Z,7.50
2023-04-24T11:09:06.468Z,5.90
2023-04-24T11:14:08.531Z,7.20
2023-04-24T11:19:20.894Z,8.90
2023-04-24T11:24:32.218Z,5.80
2023-04-24T11:29:52.022Z,8.90
2023-04-24T11:34:56.244Z,6.20
2023-04-24T11:39:59.158Z,6.50
2023-04-24T11:45:02.484Z,6.50
2023-04-24T11:50:06.723Z,7.90
2023-04-24T11:55:23.040Z,6.90
2023-04-24T12:00:26.990Z,4.70
2023-04-24T12:05:28.525Z,5.90
2023-04-24T12:10:31.899Z,6.90
2023-04-24T12:15:33.254Z,8.70
2023-04-24T12:20:35.846Z,5.40
2023-04-24T12:30:45.099Z,5.80
2023-04-24T12:35:46.570Z,7.40
2023-04-24T12:40:47.570Z,6.70
2023-04-24T12:45:49.230Z,16.00
2023-04-24T12:50:50.776Z,9.00
2023-04-24T12:55:53.154Z,4.50
2023-04-24T13:05:56.289Z,7.50
2023-04-24T13:10:57.442Z,6.70
2023-04-24T13:15:58.436Z,4.70
2023-04-24T13:20:59.853Z,24.50
2023-04-24T13:26:01.611Z,4.60
2023-04-24T13:31:02.575Z,8.10
2023-04-24T13:36:03.575Z,6.40
2023-04-24T13:41:04.669Z,6.90
2023-04-24T13:46:05.618Z,5.60
2023-04-24T13:51:06.617Z,8.30
2023-04-24T13:56:08.104Z,9.30
2023-04-24T14:01:09.385Z,5.80
2023-04-24T14:06:11.689Z,6.50
2023-04-24T14:11:13.562Z,6.60
2023-04-24T14:16:15.529Z,7.00
2023-04-24T14:21:24.400Z,7.90
2023-04-24T14:26:26.285Z,6.40
2023-04-24T14:31:52.858Z,5.90
2023-04-24T14:36:55.528Z,10.70
2023-04-24T14:41:56.987Z,5.70
2023-04-24T14:46:59.070Z,7.50
2023-04-24T14:52:04.770Z,6.10
2023-04-24T14:57:06.878Z,5.50
2023-04-24T15:02:16.019Z,5.60
2023-04-24T15:07:18.456Z,6.00
2023-04-24T15:12:19.558Z,5.60
2023-04-24T15:17:20.647Z,6.30
2023-04-24T15:22:21.703Z,6.00
2023-04-24T15:27:22.729Z,6.10
2023-04-24T15:32:23.912Z,7.40
2023-04-24T15:37:25.130Z,6.50
2023-04-24T15:42:26.927Z,6.20
2023-04-24T15:47:28.067Z,8.10
2023-04-24T15:52:29.095Z,7.40
2023-04-24T15:57:30.123Z,6.70
2023-04-24T16:02:31.259Z,9.50
2023-04-24T16:07:33.687Z,8.20
2023-04-24T16:12:34.838Z,8.70
2023-04-24T16:17:36.009Z,9.70
2023-04-24T16:22:38.602Z,8.60
2023-04-24T16:27:39.894Z,8.60
2023-04-24T16:32:40.856Z,9.20
2023-04-24T16:37:42.016Z,11.10
2023-04-24T16:42:42.985Z,10.30
2023-04-24T16:47:44.069Z,11.20
2023-04-24T16:52:45.150Z,10.20
2023-04-24T16:57:46.219Z,10.80
2023-04-24T17:02:49.693Z,11.00
2023-04-24T17:07:50.946Z,17.00
2023-04-24T17:12:51.972Z,15.50
2023-04-24T17:17:53.268Z,14.00
2023-04-24T17:22:54.252Z,16.90
2023-04-24T17:27:55.270Z,28.70
2023-04-24T17:32:56.364Z,48.60
2023-04-24T17:37:57.809Z,33.20
2023-04-24T17:42:58.832Z,33.70
2023-04-24T17:48:00.097Z,19.00
2023-04-24T17:53:01.224Z,15.30
2023-04-24T17:58:02.856Z,19.90
2023-04-24T18:03:06.049Z,37.50
2023-04-24T18:08:11.647Z,37.50
2023-04-24T18:13:12.812Z,36.70
2023-04-24T18:18:14.838Z,26.20
2023-04-24T18:23:15.862Z,37.50
2023-04-24T18:28:16.872Z,36.70
2023-04-24T18:33:18.429Z,35.20
2023-04-24T18:38:19.800Z,47.20
2023-04-24T18:43:21.067Z,46.90
2023-04-24T18:48:22.065Z,37.60
2023-04-24T18:53:23.575Z,40.00
2023-04-24T18:58:24.646Z,42.00
2023-04-24T19:03:25.623Z,34.30
2023-04-24T19:08:28.215Z,32.10
2023-04-24T19:14:08.515Z,30.80
2023-04-24T19:19:14.353Z,27.30
2023-04-24T19:24:19.098Z,31.80
2023-04-24T19:29:20.351Z,28.50
2023-04-24T19:34:21.324Z,26.20
2023-04-24T19:39:22.646Z,22.30
2023-04-24T19:44:24.625Z,21.10
2023-04-24T19:49:25.820Z,20.60
2023-04-24T19:54:27.225Z,25.60
2023-04-24T19:59:28.331Z,14.50
2023-04-24T20:04:29.472Z,17.70
2023-04-24T20:09:32.953Z,15.30
2023-04-24T20:19:35.434Z,13.50
2023-04-24T20:24:37.106Z,10.20
2023-04-24T20:29:38.526Z,9.70
2023-04-24T20:34:39.607Z,8.30
2023-04-24T20:39:40.714Z,7.00
2023-04-24T20:44:41.910Z,5.80
2023-04-24T20:49:42.896Z,9.10
2023-04-24T20:54:43.936Z,6.70
2023-04-24T20:59:44.986Z,6.80
2023-04-24T21:04:46.404Z,7.70
2023-04-24T21:09:48.103Z,6.60
2023-04-24T21:15:10.782Z,5.10
2023-04-24T21:20:12.108Z,8.50
2023-04-24T21:25:13.305Z,8.90
2023-04-24T21:30:14.570Z,8.90
2023-04-24T21:35:22.169Z,9.50
2023-04-24T21:40:25.722Z,9.00
2023-04-24T21:45:27.340Z,11.10
2023-04-24T21:50:29.988Z,10.50
2023-04-24T21:55:31.132Z,7.20
2023-04-24T22:00:33.454Z,8.40
2023-04-24T22:05:35.329Z,5.30
2023-04-24T22:10:37.323Z,8.50
2023-04-24T22:15:38.556Z,11.90
2023-04-24T22:20:39.634Z,9.90
2023-04-24T22:25:40.839Z,8.90
2023-04-24T22:30:42.271Z,8.60
2023-04-24T22:35:43.418Z,8.50
2023-04-24T22:40:44.443Z,6.90
2023-04-24T22:45:45.432Z,5.80
2023-04-24T22:50:46.523Z,7.60
2023-04-24T22:55:48.139Z,8.60
2023-04-24T23:00:49.382Z,9.10
2023-04-24T23:05:50.560Z,7.60
2023-04-24T23:10:56.756Z,10.30
2023-04-24T23:16:04.420Z,11.10
2023-04-24T23:21:06.066Z,10.20
2023-04-24T23:26:07.171Z,16.80
2023-04-24T23:31:08.258Z,18.20
2023-04-24T23:36:09.385Z,13.60
2023-04-24T23:41:11.343Z,14.20
2023-04-24T23:46:19.685Z,21.90
2023-04-24T23:51:22.645Z,15.60
2023-04-24T23:56:25.987Z,16.90
